Time;durP1;ratioP1;P1;durP2;ratioP2;P2;SDS_P1;SDS_P2;PMS_P1;PMS_P2;Temp;Humidity;BMP_temperature;BMP_pressure;BME280_temperature;BME280_humidity;BME280_pressure;Samples;Min_cycle;Max_cycle;Signal;HPM_P1;HPM_P2
2021/12/28 00:01:33;;;;;;;102.95;31.98;;;;;;;;;;6200775;28;20503;-62
2021/12/28 00:04:34;;;;;;;108.97;32.88;;;;;;;;;;6206532;28;20088;-66
2021/12/28 00:07:34;;;;;;;108.25;33.25;;;;;;;;;;6209508;28;20049;-62
2021/12/28 00:10:35;;;;;;;109.10;32.80;;;;;;;;;;6203087;28;20844;-62
2021/12/28 00:13:37;;;;;;;108.80;34.47;;;;;;;;;;6200923;28;20061;-64
2021/12/28 00:19:57;;;;;;;111.60;31.73;;;;;;;;;;6197452;28;20127;-65
2021/12/28 00:22:58;;;;;;;113.60;32.60;;;;;;;;;;6197230;28;20620;-62
2021/12/28 00:25:59;;;;;;;101.47;30.73;;;;;;;;;;6200874;28;20081;-65
2021/12/28 00:29:01;;;;;;;120.38;33.75;;;;;;;;;;6197162;28;20049;-65
2021/12/28 00:32:02;;;;;;;200.05;48.80;;;;;;;;;;6200729;28;20085;-67
2021/12/28 00:35:04;;;;;;;117.00;33.53;;;;;;;;;;6200351;28;20062;-63
2021/12/28 00:38:10;;;;;;;98.75;28.98;;;;;;;;;;6197951;28;20061;-66
2021/12/28 00:41:11;;;;;;;91.22;29.17;;;;;;;;;;6199874;28;20468;-62
2021/12/28 00:44:14;;;;;;;97.35;29.77;;;;;;;;;;6199300;28;20714;-63
2021/12/28 00:47:16;;;;;;;106.85;30.15;;;;;;;;;;6200062;28;20042;-67
2021/12/28 00:50:18;;;;;;;100.38;31.15;;;;;;;;;;6214347;28;20057;-63
2021/12/28 00:53:19;;;;;;;107.38;31.67;;;;;;;;;;6223758;28;20060;-67
2021/12/28 00:56:20;;;;;;;97.43;28.35;;;;;;;;;;6225337;28;20073;-64
2021/12/28 00:59:20;;;;;;;98.53;28.90;;;;;;;;;;6221256;28;20053;-64
2021/12/28 01:02:22;;;;;;;94.85;28.38;;;;;;;;;;6224926;28;20132;-63
2021/12/28 01:05:24;;;;;;;111.80;31.85;;;;;;;;;;6223156;28;20046;-60
2021/12/28 01:08:26;;;;;;;95.90;29.30;;;;;;;;;;6222534;28;20114;-65
2021/12/28 01:11:26;;;;;;;88.30;28.98;;;;;;;;;;6224096;28;20046;-59
2021/12/28 01:14:28;;;;;;;112.88;31.25;;;;;;;;;;6223741;28;20045;-60
2021/12/28 01:17:28;;;;;;;100.63;31.60;;;;;;;;;;6223720;28;20456;-59
2021/12/28 01:20:30;;;;;;;101.40;29.42;;;;;;;;;;6222479;28;20509;-62
2021/12/28 01:23:31;;;;;;;99.72;29.50;;;;;;;;;;6222177;28;21535;-64
2021/12/28 01:26:31;;;;;;;87.88;30.42;;;;;;;;;;6226178;28;20064;-63
2021/12/28 01:29:33;;;;;;;91.43;29.05;;;;;;;;;;6221724;28;20046;-60
2021/12/28 01:32:34;;;;;;;102.65;32.13;;;;;;;;;;6225971;28;20137;-59
2021/12/28 01:35:36;;;;;;;96.82;29.50;;;;;;;;;;6224663;28;20057;-63
2021/12/28 01:38:36;;;;;;;111.75;32.88;;;;;;;;;;6223375;28;20136;-62
2021/12/28 01:41:37;;;;;;;92.90;30.38;;;;;;;;;;6225647;28;20115;-61
2021/12/28 01:44:38;;;;;;;96.78;29.77;;;;;;;;;;6224470;28;20100;-65
2021/12/28 01:47:39;;;;;;;95.50;29.45;;;;;;;;;;6206848;28;20132;-60
2021/12/28 01:50:41;;;;;;;91.78;29.27;;;;;;;;;;6221352;28;20180;-60
2021/12/28 01:53:41;;;;;;;97.75;29.77;;;;;;;;;;6224065;28;20080;-62
2021/12/28 01:56:44;;;;;;;94.07;28.95;;;;;;;;;;6225212;28;20123;-63
2021/12/28 01:59:45;;;;;;;94.88;29.10;;;;;;;;;;6221844;28;20735;-61
2021/12/28 02:02:46;;;;;;;85.57;27.25;;;;;;;;;;6223893;28;20056;-62
2021/12/28 02:05:47;;;;;;;89.97;27.85;;;;;;;;;;6223368;28;20038;-64
2021/12/28 02:08:48;;;;;;;94.10;29.67;;;;;;;;;;6223475;28;20141;-60
2021/12/28 02:11:48;;;;;;;84.10;27.13;;;;;;;;;;6224053;28;20079;-62
2021/12/28 02:14:49;;;;;;;97.68;28.90;;;;;;;;;;6223959;28;20069;-62
2021/12/28 02:17:50;;;;;;;91.88;27.30;;;;;;;;;;6222386;28;20053;-61
2021/12/28 02:20:53;;;;;;;83.43;26.77;;;;;;;;;;6222033;28;20045;-60
2021/12/28 02:23:54;;;;;;;92.85;28.52;;;;;;;;;;6222525;28;20122;-60
2021/12/28 02:26:54;;;;;;;88.55;27.25;;;;;;;;;;6234696;28;20611;-65
2021/12/28 02:29:56;;;;;;;90.78;27.70;;;;;;;;;;6221834;28;20114;-63
2021/12/28 02:32:57;;;;;;;98.07;27.83;;;;;;;;;;6218723;28;20391;-64
2021/12/28 02:35:59;;;;;;;89.72;26.45;;;;;;;;;;6232472;28;20141;-64
2021/12/28 02:39:00;;;;;;;88.65;28.95;;;;;;;;;;6238467;28;20037;-60
2021/12/28 02:42:01;;;;;;;73.95;23.58;;;;;;;;;;6229216;28;20695;-65
2021/12/28 02:45:10;;;;;;;83.22;26.95;;;;;;;;;;6236837;28;20060;-65
2021/12/28 02:48:10;;;;;;;84.47;26.20;;;;;;;;;;6232105;28;20049;-66
2021/12/28 02:51:14;;;;;;;85.82;27.20;;;;;;;;;;6233849;28;20048;-66
2021/12/28 02:54:15;;;;;;;84.82;27.65;;;;;;;;;;6224099;28;20057;-66
2021/12/28 02:57:15;;;;;;;86.47;26.73;;;;;;;;;;6218693;28;20579;-62
2021/12/28 03:00:44;;;;;;;94.25;28.42;;;;;;;;;;6221914;28;20481;-62
2021/12/28 03:03:48;;;;;;;84.78;25.50;;;;;;;;;;6222229;28;20622;-64
2021/12/28 03:06:49;;;;;;;84.32;25.95;;;;;;;;;;6220143;28;20045;-63
2021/12/28 03:09:50;;;;;;;89.65;26.75;;;;;;;;;;6215698;28;20053;-65
2021/12/28 03:12:51;;;;;;;79.13;25.80;;;;;;;;;;6215206;28;20072;-63
2021/12/28 03:15:52;;;;;;;84.25;27.77;;;;;;;;;;6223580;28;20058;-65
2021/12/28 03:18:53;;;;;;;90.40;27.95;;;;;;;;;;6219700;28;20065;-62
2021/12/28 03:21:57;;;;;;;86.55;28.63;;;;;;;;;;6221960;28;20456;-63
2021/12/28 03:24:57;;;;;;;81.47;26.40;;;;;;;;;;6231716;28;20453;-62
2021/12/28 03:28:00;;;;;;;85.00;27.17;;;;;;;;;;6230889;28;20042;-63
2021/12/28 03:31:02;;;;;;;;;;;;;;;;;;6226743;28;20048;-64
2021/12/28 03:34:03;;;;;;;84.03;26.30;;;;;;;;;;6225996;28;22028;-64
2021/12/28 03:37:04;;;;;;;85.35;27.20;;;;;;;;;;6225901;28;20081;-61
2021/12/28 03:40:08;;;;;;;80.28;27.33;;;;;;;;;;6233774;28;20893;-66
2021/12/28 03:43:08;;;;;;;82.70;27.05;;;;;;;;;;6232169;28;20064;-63
2021/12/28 03:46:10;;;;;;;78.53;26.70;;;;;;;;;;6228722;28;20041;-65
2021/12/28 03:49:10;;;;;;;83.75;26.70;;;;;;;;;;6225748;28;20045;-64
2021/12/28 03:52:11;;;;;;;94.57;31.58;;;;;;;;;;6231144;28;20064;-65
2021/12/28 03:55:12;;;;;;;112.03;35.42;;;;;;;;;;6229705;28;20055;-66
2021/12/28 03:58:13;;;;;;;98.10;30.33;;;;;;;;;;6229747;28;20107;-61
2021/12/28 04:01:17;;;;;;;86.70;31.35;;;;;;;;;;6238225;28;20486;-62
2021/12/28 04:04:19;;;;;;;82.72;30.98;;;;;;;;;;6242898;28;20472;-65
2021/12/28 04:07:21;;;;;;;83.93;28.63;;;;;;;;;;6239190;28;20383;-63
2021/12/28 04:10:29;;;;;;;80.70;26.75;;;;;;;;;;6225131;28;20127;-62
2021/12/28 04:13:30;;;;;;;89.15;29.25;;;;;;;;;;6232182;28;20693;-64
2021/12/28 04:16:31;;;;;;;84.95;29.42;;;;;;;;;;6228568;28;20134;-65
2021/12/28 04:19:32;;;;;;;88.22;30.10;;;;;;;;;;6229916;28;20432;-65
2021/12/28 04:22:33;;;;;;;95.95;33.42;;;;;;;;;;6227596;28;20049;-64
2021/12/28 04:25:33;;;;;;;92.22;30.80;;;;;;;;;;6229497;28;20056;-66
2021/12/28 04:28:34;;;;;;;88.43;29.20;;;;;;;;;;6232296;28;20068;-63
2021/12/28 04:31:35;;;;;;;84.50;27.52;;;;;;;;;;6228478;28;20048;-62
2021/12/28 04:34:36;;;;;;;73.10;26.38;;;;;;;;;;6231635;28;20049;-65
2021/12/28 04:37:37;;;;;;;77.07;27.60;;;;;;;;;;6228175;28;20142;-62
2021/12/28 04:40:39;;;;;;;78.47;26.02;;;;;;;;;;6231557;28;20157;-66
2021/12/28 04:43:39;;;;;;;68.45;26.02;;;;;;;;;;6225269;28;20716;-61
2021/12/28 04:46:40;;;;;;;69.43;24.88;;;;;;;;;;6229145;28;20072;-63
2021/12/28 04:49:41;;;;;;;69.85;26.02;;;;;;;;;;6229000;28;20046;-66
2021/12/28 04:52:42;;;;;;;74.97;25.77;;;;;;;;;;6229626;28;20048;-65
2021/12/28 04:55:47;;;;;;;74.53;26.00;;;;;;;;;;6226402;28;20037;-66
2021/12/28 04:58:48;;;;;;;76.22;25.02;;;;;;;;;;6228817;28;20052;-64
2021/12/28 05:01:48;;;;;;;63.92;24.08;;;;;;;;;;6230684;28;20540;-65
2021/12/28 05:04:49;;;;;;;69.35;24.23;;;;;;;;;;6227996;28;20115;-62
2021/12/28 05:07:50;;;;;;;68.32;23.45;;;;;;;;;;6224244;28;20057;-63
2021/12/28 05:10:52;;;;;;;69.07;23.80;;;;;;;;;;6228797;28;20456;-61
2021/12/28 05:13:52;;;;;;;68.70;23.92;;;;;;;;;;6228246;28;20145;-64
2021/12/28 05:16:53;;;;;;;70.40;23.33;;;;;;;;;;6228801;28;20045;-65
2021/12/28 05:19:54;;;;;;;64.85;22.30;;;;;;;;;;6227223;28;20054;-65
2021/12/28 05:22:54;;;;;;;62.35;24.05;;;;;;;;;;6225459;28;20064;-62
2021/12/28 05:25:55;;;;;;;64.28;24.33;;;;;;;;;;6226682;28;20413;-61
2021/12/28 05:28:56;;;;;;;70.88;23.38;;;;;;;;;;6228854;28;20045;-61
2021/12/28 05:31:57;;;;;;;70.95;26.60;;;;;;;;;;6227327;28;20107;-64
2021/12/28 05:34:58;;;;;;;75.15;24.25;;;;;;;;;;6226856;28;20934;-64
2021/12/28 05:38:00;;;;;;;66.28;23.88;;;;;;;;;;6231708;28;20396;-65
2021/12/28 05:41:01;;;;;;;70.75;24.55;;;;;;;;;;6227079;28;20173;-62
2021/12/28 05:44:02;;;;;;;67.93;25.58;;;;;;;;;;6228275;28;20069;-61
2021/12/28 05:47:03;;;;;;;66.80;24.75;;;;;;;;;;6228986;28;20049;-61
2021/12/28 05:50:06;;;;;;;76.82;26.73;;;;;;;;;;6230444;28;20145;-61
2021/12/28 05:53:06;;;;;;;82.53;27.85;;;;;;;;;;6225240;28;20091;-67
2021/12/28 05:56:07;;;;;;;78.43;27.95;;;;;;;;;;6230705;28;20046;-63
2021/12/28 05:59:08;;;;;;;75.47;24.98;;;;;;;;;;6226506;28;20473;-64
2021/12/28 06:02:08;;;;;;;67.50;23.15;;;;;;;;;;6225043;28;20041;-63
2021/12/28 06:05:09;;;;;;;72.00;24.92;;;;;;;;;;6225189;28;20128;-66
2021/12/28 06:08:10;;;;;;;68.25;22.98;;;;;;;;;;6230013;28;20099;-62
2021/12/28 06:11:13;;;;;;;65.25;24.98;;;;;;;;;;6227559;28;20069;-67
2021/12/28 06:14:13;;;;;;;74.72;25.05;;;;;;;;;;6224575;28;20046;-62
2021/12/28 06:17:14;;;;;;;66.55;22.80;;;;;;;;;;6228583;28;20072;-67
2021/12/28 06:20:15;;;;;;;66.65;23.83;;;;;;;;;;6222739;28;20069;-61
2021/12/28 06:23:17;;;;;;;63.28;21.73;;;;;;;;;;6227740;28;20046;-63
2021/12/28 06:26:18;;;;;;;69.43;23.05;;;;;;;;;;6228534;28;20054;-68
2021/12/28 06:29:18;;;;;;;59.45;21.42;;;;;;;;;;6226106;28;20128;-63
2021/12/28 06:32:19;;;;;;;62.05;20.92;;;;;;;;;;6225840;28;20128;-64
2021/12/28 06:35:20;;;;;;;61.50;20.58;;;;;;;;;;6229276;28;20051;-68
2021/12/28 06:38:21;;;;;;;66.97;22.55;;;;;;;;;;6228932;28;20141;-63
2021/12/28 06:41:22;;;;;;;63.33;22.97;;;;;;;;;;6229362;28;20508;-59
2021/12/28 06:44:23;;;;;;;62.22;22.60;;;;;;;;;;6227263;28;20133;-65
2021/12/28 06:47:24;;;;;;;67.82;22.58;;;;;;;;;;6228843;28;20593;-62
2021/12/28 06:50:24;;;;;;;60.78;22.85;;;;;;;;;;6226932;28;20049;-66
2021/12/28 06:53:25;;;;;;;69.93;24.40;;;;;;;;;;6223450;28;20041;-63
2021/12/28 06:56:26;;;;;;;69.38;23.63;;;;;;;;;;6230169;28;20049;-64
2021/12/28 06:59:27;;;;;;;63.45;24.35;;;;;;;;;;6227478;28;20773;-65
2021/12/28 07:02:27;;;;;;;72.85;24.40;;;;;;;;;;6233896;28;20053;-64
2021/12/28 07:05:28;;;;;;;58.35;22.45;;;;;;;;;;6226549;28;20045;-65
2021/12/28 07:08:29;;;;;;;64.30;22.92;;;;;;;;;;6228057;28;20042;-63
2021/12/28 07:11:29;;;;;;;63.78;23.58;;;;;;;;;;6226314;28;20524;-66
2021/12/28 07:14:30;;;;;;;64.93;25.13;;;;;;;;;;6225326;28;20169;-61
2021/12/28 07:17:31;;;;;;;60.10;23.50;;;;;;;;;;6226675;28;20037;-62
2021/12/28 07:20:32;;;;;;;66.80;23.30;;;;;;;;;;6224414;28;20141;-61
2021/12/28 07:23:33;;;;;;;63.33;21.85;;;;;;;;;;6229404;28;20048;-59
2021/12/28 07:26:35;;;;;;;62.70;21.98;;;;;;;;;;6230932;28;20076;-61
2021/12/28 07:29:36;;;;;;;;;;;;;;;;;;6228547;28;20408;-64
2021/12/28 07:32:37;;;;;;;66.32;20.63;;;;;;;;;;6225617;28;20028;-63
2021/12/28 07:35:38;;;;;;;62.90;22.95;;;;;;;;;;6227173;28;20062;-61
2021/12/28 07:38:38;;;;;;;66.13;23.85;;;;;;;;;;6227253;28;20504;-62
2021/12/28 07:41:39;;;;;;;63.95;22.98;;;;;;;;;;6224974;28;20033;-64
2021/12/28 07:44:40;;;;;;;67.32;25.70;;;;;;;;;;6224556;28;20053;-63
2021/12/28 07:47:42;;;;;;;66.75;23.35;;;;;;;;;;6227345;28;20496;-60
2021/12/28 07:50:43;;;;;;;64.35;23.08;;;;;;;;;;6226575;28;20049;-61
2021/12/28 07:53:44;;;;;;;60.00;23.80;;;;;;;;;;6229669;28;20493;-60
2021/12/28 07:56:44;;;;;;;67.35;23.00;;;;;;;;;;6225968;28;20152;-64
2021/12/28 07:59:45;;;;;;;82.13;27.77;;;;;;;;;;6232247;28;20042;-60
2021/12/28 08:02:46;;;;;;;67.35;25.48;;;;;;;;;;6226555;28;20053;-62
2021/12/28 08:05:47;;;;;;;78.47;25.52;;;;;;;;;;6234094;28;20581;-62
2021/12/28 08:08:47;;;;;;;70.18;24.50;;;;;;;;;;6245084;28;20038;-61
2021/12/28 08:11:48;;;;;;;69.40;24.77;;;;;;;;;;6239340;28;20041;-58
2021/12/28 08:14:49;;;;;;;77.38;29.13;;;;;;;;;;6238679;28;20053;-63
2021/12/28 08:17:50;;;;;;;82.25;28.25;;;;;;;;;;6225971;28;20046;-60
2021/12/28 08:20:51;;;;;;;77.95;27.85;;;;;;;;;;6242048;28;20049;-61
2021/12/28 08:23:52;;;;;;;69.82;27.02;;;;;;;;;;6238351;28;20049;-60
2021/12/28 08:26:52;;;;;;;75.85;30.90;;;;;;;;;;6238123;28;20042;-61
2021/12/28 08:29:53;;;;;;;71.43;28.45;;;;;;;;;;6254437;28;20382;-62
2021/12/28 08:32:54;;;;;;;68.82;27.75;;;;;;;;;;6244066;28;20145;-62
2021/12/28 08:35:56;;;;;;;78.25;30.35;;;;;;;;;;6231352;28;20144;-63
2021/12/28 08:38:56;;;;;;;63.33;25.43;;;;;;;;;;6222109;28;20049;-60
2021/12/28 08:41:57;;;;;;;61.33;25.60;;;;;;;;;;6217844;28;20142;-55
2021/12/28 08:44:58;;;;;;;69.90;24.88;;;;;;;;;;6242360;28;20054;-60
2021/12/28 08:47:59;;;;;;;72.03;25.63;;;;;;;;;;6234399;28;20042;-60
2021/12/28 08:51:00;;;;;;;69.50;25.80;;;;;;;;;;6228946;28;21003;-60
2021/12/28 08:54:00;;;;;;;70.05;27.42;;;;;;;;;;6241845;28;20045;-61
2021/12/28 08:57:01;;;;;;;70.78;27.65;;;;;;;;;;6242718;28;20073;-60
2021/12/28 09:00:05;;;;;;;76.18;28.85;;;;;;;;;;6242933;28;20411;-61
2021/12/28 09:03:06;;;;;;;67.47;28.48;;;;;;;;;;6231843;28;20053;-60
2021/12/28 09:06:07;;;;;;;62.00;22.27;;;;;;;;;;6219391;28;20072;-60
2021/12/28 09:09:08;;;;;;;63.15;22.85;;;;;;;;;;6227721;28;20049;-58
2021/12/28 09:12:09;;;;;;;59.90;22.58;;;;;;;;;;6242537;28;20049;-68
2021/12/28 09:15:10;;;;;;;62.50;25.15;;;;;;;;;;6236088;28;20056;-61
2021/12/28 09:18:11;;;;;;;73.07;26.77;;;;;;;;;;6225820;28;20046;-61
2021/12/28 09:21:12;;;;;;;71.15;25.08;;;;;;;;;;6226080;28;20528;-62
2021/12/28 09:24:13;;;;;;;71.40;26.80;;;;;;;;;;6219407;28;20042;-62
2021/12/28 09:27:13;;;;;;;68.22;26.95;;;;;;;;;;6220978;28;20184;-64
2021/12/28 09:30:15;;;;;;;66.35;26.75;;;;;;;;;;6218917;28;20050;-61
2021/12/28 09:33:15;;;;;;;59.10;22.95;;;;;;;;;;6217673;28;20034;-61
2021/12/28 09:36:17;;;;;;;54.20;21.27;;;;;;;;;;6214820;28;20060;-61
2021/12/28 09:39:23;;;;;;;69.77;25.83;;;;;;;;;;6223005;28;20044;-60
2021/12/28 09:42:24;;;;;;;56.17;23.50;;;;;;;;;;6217925;28;20036;-62
2021/12/28 09:45:27;;;;;;;62.13;24.80;;;;;;;;;;6220048;28;20045;-59
2021/12/28 09:48:28;;;;;;;62.38;24.45;;;;;;;;;;6220118;28;20045;-58
2021/12/28 09:51:29;;;;;;;70.90;27.38;;;;;;;;;;6222387;28;20188;-59
2021/12/28 09:54:30;;;;;;;63.67;25.50;;;;;;;;;;6221464;28;20050;-61
2021/12/28 09:57:31;;;;;;;68.70;26.48;;;;;;;;;;6222080;28;20141;-61
2021/12/28 10:00:32;;;;;;;68.65;25.98;;;;;;;;;;6227636;28;20045;-62
2021/12/28 10:03:33;;;;;;;65.13;25.80;;;;;;;;;;6221567;28;20145;-59
2021/12/28 10:06:34;;;;;;;71.32;27.48;;;;;;;;;;6218667;28;20045;-62
2021/12/28 10:09:35;;;;;;;68.60;25.02;;;;;;;;;;6223273;28;20099;-61
2021/12/28 10:12:38;;;;;;;61.25;23.25;;;;;;;;;;6225005;28;20511;-62
2021/12/28 10:15:40;;;;;;;64.45;25.30;;;;;;;;;;6250974;28;20042;-62
2021/12/28 10:18:41;;;;;;;63.92;25.60;;;;;;;;;;6222100;28;20528;-62
2021/12/28 10:21:41;;;;;;;63.70;26.90;;;;;;;;;;6224818;28;20448;-61
2021/12/28 10:24:43;;;;;;;69.33;26.57;;;;;;;;;;6217194;28;20128;-60
2021/12/28 10:27:46;;;;;;;64.68;25.88;;;;;;;;;;6224101;28;20327;-61
2021/12/28 10:30:54;;;;;;;60.55;22.83;;;;;;;;;;6220458;28;20863;-60
2021/12/28 10:33:56;;;;;;;62.95;24.35;;;;;;;;;;6216040;28;20041;-59
2021/12/28 10:37:13;;;;;;;62.93;24.80;;;;;;;;;;6220257;28;20069;-60
2021/12/28 10:40:20;;;;;;;61.72;23.45;;;;;;;;;;6217589;28;20060;-61
2021/12/28 10:43:43;;;;;;;59.42;23.13;;;;;;;;;;6218738;28;20475;-61
2021/12/28 10:46:43;;;;;;;67.43;25.90;;;;;;;;;;6214820;28;20080;-61
2021/12/28 10:49:44;;;;;;;64.22;25.52;;;;;;;;;;6220967;28;20525;-61
2021/12/28 10:52:50;;;;;;;65.60;25.50;;;;;;;;;;6220953;28;20500;-59
2021/12/28 10:55:55;;;;;;;54.63;23.45;;;;;;;;;;6216008;28;20073;-60
2021/12/28 10:58:56;;;;;;;60.08;24.67;;;;;;;;;;6215022;28;20053;-62
2021/12/28 11:01:57;;;;;;;61.70;24.77;;;;;;;;;;6222731;28;20054;-64
2021/12/28 11:04:58;;;;;;;63.78;23.98;;;;;;;;;;6217912;28;20389;-60
2021/12/28 11:07:59;;;;;;;57.67;23.00;;;;;;;;;;6216419;28;20100;-58
2021/12/28 11:11:05;;;;;;;61.50;23.50;;;;;;;;;;6236257;28;20093;-58
2021/12/28 11:14:08;;;;;;;63.63;24.90;;;;;;;;;;6242178;28;20095;-61
2021/12/28 11:17:09;;;;;;;67.55;28.27;;;;;;;;;;6235449;28;20129;-60
2021/12/28 11:20:11;;;;;;;61.08;24.25;;;;;;;;;;6237907;28;20057;-61
2021/12/28 11:23:14;;;;;;;62.20;25.33;;;;;;;;;;6238828;28;20079;-61
2021/12/28 11:26:20;;;;;;;67.68;25.65;;;;;;;;;;6239015;28;20899;-62
2021/12/28 11:29:27;;;;;;;67.18;24.60;;;;;;;;;;6220533;28;20042;-62
2021/12/28 11:32:28;;;;;;;63.63;25.67;;;;;;;;;;6216969;28;20084;-62
2021/12/28 11:35:29;;;;;;;64.50;26.70;;;;;;;;;;6227661;28;20061;-61
2021/12/28 11:38:30;;;;;;;62.13;25.20;;;;;;;;;;6232227;28;20070;-62
2021/12/28 11:41:30;;;;;;;68.60;25.70;;;;;;;;;;6216841;28;20452;-62
2021/12/28 11:44:34;;;;;;;61.17;23.38;;;;;;;;;;6223049;28;20092;-62
2021/12/28 11:47:35;;;;;;;55.42;22.63;;;;;;;;;;6216109;28;20520;-61
2021/12/28 11:50:36;;;;;;;63.35;23.40;;;;;;;;;;6223796;28;20060;-63
2021/12/28 11:53:42;;;;;;;54.25;22.38;;;;;;;;;;6218800;28;20140;-63
2021/12/28 11:56:46;;;;;;;59.95;23.83;;;;;;;;;;6218890;28;20064;-63
2021/12/28 11:59:55;;;;;;;67.30;25.60;;;;;;;;;;6225289;28;20096;-63
2021/12/28 12:02:56;;;;;;;60.35;23.52;;;;;;;;;;6226160;28;20183;-61
2021/12/28 12:05:57;;;;;;;58.05;23.98;;;;;;;;;;6221171;28;20082;-62
2021/12/28 12:09:02;;;;;;;59.95;25.55;;;;;;;;;;6220868;28;20460;-62
2021/12/28 12:12:11;;;;;;;61.03;25.23;;;;;;;;;;6224188;28;20420;-62
2021/12/28 12:15:14;;;;;;;60.70;24.17;;;;;;;;;;6219336;28;20555;-61
2021/12/28 12:18:17;;;;;;;53.38;22.80;;;;;;;;;;6221127;28;20049;-61
2021/12/28 12:21:20;;;;;;;54.35;23.40;;;;;;;;;;6219790;28;20085;-60
2021/12/28 12:24:36;;;;;;;55.33;24.05;;;;;;;;;;6230670;28;20091;-61
2021/12/28 12:27:38;;;;;;;53.45;22.73;;;;;;;;;;6242723;28;20037;-60
2021/12/28 12:30:49;;;;;;;61.80;25.90;;;;;;;;;;6242630;28;20052;-62
2021/12/28 12:33:50;;;;;;;52.78;23.05;;;;;;;;;;6231355;28;20555;-61
2021/12/28 12:36:51;;;;;;;58.08;23.60;;;;;;;;;;6227641;28;20038;-61
2021/12/28 12:39:54;;;;;;;56.60;24.27;;;;;;;;;;6220074;28;20800;-61
2021/12/28 12:43:12;;;;;;;57.63;24.05;;;;;;;;;;6218661;28;20057;-62
2021/12/28 12:46:33;;;;;;;55.63;22.70;;;;;;;;;;6219536;28;20044;-61
2021/12/28 12:49:33;;;;;;;60.42;24.25;;;;;;;;;;6218995;28;20413;-60
2021/12/28 12:52:34;;;;;;;62.83;26.67;;;;;;;;;;6221349;28;20050;-61
2021/12/28 12:55:35;;;;;;;60.20;25.65;;;;;;;;;;6220550;28;20220;-62
2021/12/28 12:58:40;;;;;;;61.15;26.00;;;;;;;;;;6218678;28;20050;-61
2021/12/28 13:01:41;;;;;;;67.63;26.63;;;;;;;;;;6230991;28;20049;-62
2021/12/28 13:04:47;;;;;;;72.97;28.67;;;;;;;;;;6240677;28;20412;-62
2021/12/28 13:07:50;;;;;;;71.93;29.92;;;;;;;;;;6247036;28;20049;-60
2021/12/28 13:10:50;;;;;;;64.10;25.13;;;;;;;;;;6238950;28;20168;-62
2021/12/28 13:13:51;;;;;;;71.97;29.30;;;;;;;;;;6225444;28;20074;-61
2021/12/28 13:17:00;;;;;;;68.25;27.20;;;;;;;;;;6227292;28;20120;-60
2021/12/28 13:20:11;;;;;;;68.88;28.15;;;;;;;;;;6220495;28;20774;-60
2021/12/28 13:23:12;;;;;;;61.88;25.10;;;;;;;;;;6240459;28;20505;-59
2021/12/28 13:26:13;;;;;;;70.37;26.90;;;;;;;;;;6235903;28;20144;-59
2021/12/28 13:29:28;;;;;;;64.53;26.92;;;;;;;;;;6241549;28;20424;-57
2021/12/28 13:32:34;;;;;;;66.90;26.65;;;;;;;;;;6239539;28;20054;-58
2021/12/28 13:35:38;;;;;;;81.20;29.85;;;;;;;;;;6242185;28;20093;-60
2021/12/28 13:38:38;;;;;;;84.10;32.03;;;;;;;;;;6218917;28;20042;-54
2021/12/28 13:41:48;;;;;;;95.95;35.20;;;;;;;;;;6235369;28;20055;-58
2021/12/28 13:44:48;;;;;;;91.50;35.05;;;;;;;;;;6220680;28;20519;-60
2021/12/28 13:47:49;;;;;;;88.35;33.92;;;;;;;;;;6228911;28;20057;-62
2021/12/28 13:50:55;;;;;;;82.95;31.15;;;;;;;;;;6220624;28;20872;-57
2021/12/28 13:53:59;;;;;;;82.88;31.77;;;;;;;;;;6214398;28;20053;-60
2021/12/28 13:57:01;;;;;;;100.38;38.35;;;;;;;;;;6213278;28;20053;-58
2021/12/28 14:00:05;;;;;;;102.55;37.72;;;;;;;;;;6211274;28;20148;-60
2021/12/28 14:03:07;;;;;;;90.53;33.30;;;;;;;;;;6221112;28;20054;-58
2021/12/28 14:06:09;;;;;;;90.33;33.13;;;;;;;;;;6209254;28;20492;-59
2021/12/28 14:09:15;;;;;;;85.82;32.58;;;;;;;;;;6213765;28;20287;-60
2021/12/28 14:12:16;;;;;;;92.88;32.30;;;;;;;;;;6207728;28;20173;-61
2021/12/28 14:15:16;;;;;;;88.03;31.55;;;;;;;;;;6208113;28;20041;-58
2021/12/28 14:18:34;;;;;;;84.90;32.75;;;;;;;;;;6209122;28;20038;-62
2021/12/28 14:21:35;;;;;;;73.07;28.15;;;;;;;;;;6213198;28;20056;-60
2021/12/28 14:24:35;;;;;;;81.07;30.60;;;;;;;;;;6210350;28;20511;-61
2021/12/28 14:27:36;;;;;;;81.13;31.05;;;;;;;;;;6222494;28;20049;-60
2021/12/28 14:30:37;;;;;;;81.43;31.85;;;;;;;;;;6211280;28;20128;-59
2021/12/28 14:33:46;;;;;;;76.38;29.13;;;;;;;;;;6211696;28;20037;-61
2021/12/28 14:36:47;;;;;;;82.75;31.75;;;;;;;;;;6210826;28;20083;-59
2021/12/28 14:39:53;;;;;;;80.90;34.60;;;;;;;;;;6224738;28;20041;-61
2021/12/28 14:42:54;;;;;;;83.18;34.85;;;;;;;;;;6218858;28;20160;-61
2021/12/28 14:45:55;;;;;;;84.78;33.60;;;;;;;;;;6209466;28;20054;-61
2021/12/28 14:48:56;;;;;;;74.63;28.17;;;;;;;;;;6219419;28;20183;-61
2021/12/28 14:52:23;;;;;;;76.78;30.00;;;;;;;;;;6217128;28;20152;-61
2021/12/28 14:55:30;;;;;;;97.75;35.20;;;;;;;;;;6211376;28;20527;-60
2021/12/28 14:58:30;;;;;;;87.97;32.55;;;;;;;;;;6211819;28;20034;-60
2021/12/28 15:01:33;;;;;;;86.13;33.55;;;;;;;;;;6213064;28;20143;-60
2021/12/28 15:04:33;;;;;;;83.22;32.08;;;;;;;;;;6217335;28;21470;-59
2021/12/28 15:07:34;;;;;;;87.25;31.77;;;;;;;;;;6212777;28;20152;-60
2021/12/28 15:10:38;;;;;;;79.90;30.55;;;;;;;;;;6215311;28;20056;-60
2021/12/28 15:13:43;;;;;;;70.25;28.05;;;;;;;;;;6215472;28;20126;-59
2021/12/28 15:16:43;;;;;;;80.93;30.55;;;;;;;;;;6212127;28;20129;-60
2021/12/28 15:19:44;;;;;;;78.25;32.35;;;;;;;;;;6208820;28;20165;-60
2021/12/28 15:22:45;;;;;;;78.93;31.33;;;;;;;;;;6213488;28;20527;-60
2021/12/28 15:25:46;;;;;;;94.70;33.53;;;;;;;;;;6223136;28;20575;-60
2021/12/28 15:28:46;;;;;;;83.47;32.53;;;;;;;;;;6210559;28;20046;-61
2021/12/28 15:31:47;;;;;;;81.93;32.75;;;;;;;;;;6208180;28;20100;-60
2021/12/28 15:34:48;;;;;;;88.07;34.08;;;;;;;;;;6206615;28;20521;-60
2021/12/28 15:37:49;;;;;;;77.65;31.83;;;;;;;;;;6208585;28;20046;-61
2021/12/28 15:40:52;;;;;;;86.25;33.95;;;;;;;;;;6208399;28;20795;-60
2021/12/28 15:43:52;;;;;;;;;;;;;;;;;;6209854;28;20172;-60
2021/12/28 15:46:54;;;;;;;65.40;28.92;;;;;;;;;;6212128;28;19929;-61
2021/12/28 15:49:56;;;;;;;68.35;28.33;;;;;;;;;;6214037;28;20432;-60
2021/12/28 15:52:56;;;;;;;77.53;30.67;;;;;;;;;;6222719;28;20045;-60
2021/12/28 15:55:57;;;;;;;64.90;28.02;;;;;;;;;;6219934;28;20049;-60
2021/12/28 15:58:58;;;;;;;68.85;29.17;;;;;;;;;;6225587;28;20058;-61
2021/12/28 16:01:59;;;;;;;73.60;30.75;;;;;;;;;;6226566;28;20172;-59
2021/12/28 16:04:59;;;;;;;80.05;31.52;;;;;;;;;;6226342;28;20065;-60
2021/12/28 16:08:00;;;;;;;70.55;31.23;;;;;;;;;;6226279;28;20136;-60
2021/12/28 16:11:01;;;;;;;73.93;29.60;;;;;;;;;;6224222;28;20050;-61
2021/12/28 16:14:03;;;;;;;71.43;30.17;;;;;;;;;;6206406;28;20144;-60
2021/12/28 16:17:04;;;;;;;73.10;29.85;;;;;;;;;;6219222;28;20062;-59
2021/12/28 16:20:06;;;;;;;73.50;29.52;;;;;;;;;;6217517;28;20050;-61
2021/12/28 16:23:06;;;;;;;68.63;29.60;;;;;;;;;;6217344;28;20049;-60
2021/12/28 16:26:07;;;;;;;71.10;30.08;;;;;;;;;;6220924;28;20165;-57
2021/12/28 16:29:08;;;;;;;75.63;29.80;;;;;;;;;;6224920;28;20041;-58
2021/12/28 16:32:09;;;;;;;73.53;28.90;;;;;;;;;;6223334;28;20484;-59
2021/12/28 16:35:10;;;;;;;73.15;30.17;;;;;;;;;;6226450;28;20049;-59
2021/12/28 16:38:11;;;;;;;79.22;32.25;;;;;;;;;;6226504;28;20033;-59
2021/12/28 16:41:12;;;;;;;80.18;30.77;;;;;;;;;;6225407;28;20111;-61
2021/12/28 16:44:13;;;;;;;66.97;28.27;;;;;;;;;;6223472;28;20393;-59
2021/12/28 16:47:17;;;;;;;73.57;30.20;;;;;;;;;;6224749;28;20045;-60
2021/12/28 16:50:20;;;;;;;70.63;29.02;;;;;;;;;;6215980;28;20053;-62
2021/12/28 16:53:22;;;;;;;70.32;30.27;;;;;;;;;;6220878;28;20045;-59
2021/12/28 16:56:24;;;;;;;69.88;28.27;;;;;;;;;;6218313;28;20115;-61
2021/12/28 16:59:25;;;;;;;67.57;27.97;;;;;;;;;;6219715;28;20088;-60
2021/12/28 17:02:26;;;;;;;65.68;28.50;;;;;;;;;;6222969;28;20057;-61
2021/12/28 17:05:27;;;;;;;73.25;31.02;;;;;;;;;;6224984;28;20535;-59
2021/12/28 17:08:28;;;;;;;68.03;29.15;;;;;;;;;;6219542;28;20783;-61
2021/12/28 17:11:28;;;;;;;72.75;31.35;;;;;;;;;;6222303;28;20073;-59
2021/12/28 17:14:29;;;;;;;72.55;32.67;;;;;;;;;;6221591;28;20046;-62
2021/12/28 17:17:29;;;;;;;80.47;32.85;;;;;;;;;;6223167;28;20394;-59
2021/12/28 17:20:30;;;;;;;73.85;33.63;;;;;;;;;;6223583;28;20041;-59
2021/12/28 17:23:31;;;;;;;76.70;33.20;;;;;;;;;;6220341;28;20607;-61
2021/12/28 17:26:32;;;;;;;77.80;34.53;;;;;;;;;;6224547;28;20042;-60
2021/12/28 17:29:33;;;;;;;80.35;34.20;;;;;;;;;;6223471;28;20698;-61
2021/12/28 17:32:34;;;;;;;83.05;35.55;;;;;;;;;;6222927;28;20413;-62
2021/12/28 17:35:34;;;;;;;87.32;38.25;;;;;;;;;;6222781;28;20050;-60
2021/12/28 17:38:36;;;;;;;82.80;35.42;;;;;;;;;;6225014;28;20049;-61
2021/12/28 17:41:39;;;;;;;75.53;35.17;;;;;;;;;;6223520;28;20087;-61